createdAt,value
2023-05-05T00:01:34.996Z,44.25
2023-05-05T00:04:02.805Z,43.94
2023-05-05T00:06:31.328Z,44.81
2023-05-05T00:08:59.140Z,44.69
2023-05-05T00:11:27.117Z,44.69
2023-05-05T00:13:56.203Z,44.77
2023-05-05T00:16:23.924Z,45.84
2023-05-05T00:18:51.703Z,44.93
2023-05-05T00:21:19.404Z,45.14
2023-05-05T00:23:47.120Z,45.31
2023-05-05T00:26:14.891Z,45.39
2023-05-05T00:28:42.609Z,45.73
2023-05-05T00:31:11.746Z,45.81
2023-05-05T00:33:39.551Z,45.81
2023-05-05T00:36:07.969Z,46.22
2023-05-05T00:38:35.815Z,46.48
2023-05-05T00:41:03.581Z,46.33
2023-05-05T00:43:31.303Z,46.32
2023-05-05T00:46:03.138Z,46.26
2023-05-05T00:48:32.875Z,46.77
2023-05-05T00:51:00.805Z,46.83
2023-05-05T00:53:29.640Z,46.58
2023-05-05T00:55:57.400Z,46.70
2023-05-05T00:58:25.115Z,47.14
2023-05-05T01:00:52.905Z,46.78
2023-05-05T01:03:20.686Z,46.58
2023-05-05T01:05:56.802Z,46.97
2023-05-05T01:08:33.962Z,47.29
2023-05-05T01:11:04.535Z,47.26
2023-05-05T01:13:38.772Z,47.66
2023-05-05T01:16:13.346Z,47.64
2023-05-05T01:18:47.925Z,48.59
2023-05-05T01:21:24.432Z,48.40
2023-05-05T01:24:17.513Z,49.31
2023-05-05T01:26:53.869Z,48.49
2023-05-05T01:29:36.123Z,49.63
2023-05-05T01:32:09.309Z,48.54
2023-05-05T01:34:40.293Z,49.16
2023-05-05T01:37:12.652Z,49.12
2023-05-05T01:39:42.067Z,49.16
2023-05-05T01:42:13.849Z,49.51
2023-05-05T01:44:43.741Z,49.40
2023-05-05T01:47:14.115Z,50.10
2023-05-05T01:49:42.845Z,49.99
2023-05-05T01:52:11.540Z,50.42
2023-05-05T01:54:40.629Z,50.53
2023-05-05T01:57:08.670Z,51.72
2023-05-05T01:59:37.610Z,50.72
2023-05-05T02:02:05.544Z,51.09
2023-05-05T02:04:36.450Z,51.51
2023-05-05T02:07:05.032Z,51.95
2023-05-05T02:09:33.744Z,51.94
2023-05-05T02:12:02.289Z,52.22
2023-05-05T02:14:30.809Z,52.08
2023-05-05T02:16:59.503Z,52.59
2023-05-05T02:19:30.941Z,52.97
2023-05-05T02:22:00.354Z,53.63
2023-05-05T02:24:28.226Z,53.46
2023-05-05T02:26:57.529Z,54.68
2023-05-05T02:29:29.817Z,54.65
2023-05-05T02:32:02.647Z,55.05
2023-05-05T02:34:32.413Z,54.97
2023-05-05T02:37:04.711Z,55.45
2023-05-05T02:39:34.142Z,55.38
2023-05-05T02:42:04.048Z,55.75
2023-05-05T02:44:34.229Z,55.93
2023-05-05T02:47:03.768Z,55.83
2023-05-05T02:49:31.837Z,55.64
2023-05-05T02:52:00.951Z,55.96
2023-05-05T02:54:31.982Z,56.43
2023-05-05T02:56:59.975Z,56.71
2023-05-05T02:59:36.664Z,56.50
2023-05-05T03:02:16.286Z,56.86
2023-05-05T03:04:47.605Z,56.61
2023-05-05T03:07:22.320Z,56.93
2023-05-05T03:09:55.772Z,57.10
2023-05-05T03:12:28.670Z,57.00
2023-05-05T03:14:57.032Z,57.46
2023-05-05T03:17:26.278Z,57.40
2023-05-05T03:19:54.329Z,57.64
2023-05-05T03:22:23.418Z,58.00
2023-05-05T03:24:51.240Z,58.56
2023-05-05T03:27:20.346Z,57.17
2023-05-05T03:29:47.890Z,59.14
2023-05-05T03:32:15.715Z,57.17
2023-05-05T03:34:43.458Z,58.31
2023-05-05T03:37:11.155Z,58.28
2023-05-05T03:39:40.367Z,58.75
2023-05-05T03:42:08.210Z,59.44
2023-05-05T03:44:36.044Z,59.75
2023-05-05T03:47:03.797Z,59.61
2023-05-05T03:49:31.597Z,59.71
2023-05-05T03:51:59.336Z,60.02
2023-05-05T03:54:27.051Z,60.14
2023-05-05T03:56:56.578Z,60.67
2023-05-05T03:59:24.401Z,60.83
2023-05-05T04:01:52.082Z,60.81
2023-05-05T04:04:19.934Z,61.04
2023-05-05T04:06:48.043Z,61.17
2023-05-05T04:09:15.918Z,61.20
2023-05-05T04:11:43.662Z,61.81
2023-05-05T04:14:12.793Z,61.82
2023-05-05T04:16:40.445Z,62.88
2023-05-05T04:19:08.384Z,60.96
2023-05-05T04:21:36.669Z,61.13
2023-05-05T04:24:04.564Z,61.37
2023-05-05T04:26:32.410Z,61.64
2023-05-05T04:29:00.220Z,61.70
2023-05-05T04:31:29.440Z,62.06
2023-05-05T04:33:57.290Z,62.23
2023-05-05T04:36:24.995Z,62.60
2023-05-05T04:38:52.810Z,62.66
2023-05-05T04:41:21.360Z,62.54
2023-05-05T04:43:49.099Z,62.49
2023-05-05T04:46:16.919Z,62.56
2023-05-05T04:48:46.032Z,62.67
2023-05-05T04:51:13.856Z,64.23
2023-05-05T04:53:41.629Z,61.74
2023-05-05T04:56:09.424Z,61.99
2023-05-05T04:58:37.125Z,62.51
2023-05-05T05:01:04.901Z,62.36
2023-05-05T05:03:32.985Z,62.80
2023-05-05T05:06:02.324Z,62.64
2023-05-05T05:08:30.099Z,62.91
2023-05-05T05:10:57.803Z,62.78
2023-05-05T05:13:25.640Z,62.64
2023-05-05T05:15:53.498Z,63.06
2023-05-05T05:18:21.212Z,63.09
2023-05-05T05:20:48.935Z,63.30
2023-05-05T05:23:18.064Z,62.95
2023-05-05T05:25:45.948Z,62.99
2023-05-05T05:28:13.694Z,62.96
2023-05-05T05:30:42.580Z,63.14
2023-05-05T05:33:10.847Z,63.05
2023-05-05T05:35:38.708Z,63.00
2023-05-05T05:38:06.486Z,63.12
2023-05-05T05:40:35.606Z,63.19
2023-05-05T05:43:04.052Z,62.90
2023-05-05T05:45:31.862Z,62.71
2023-05-05T05:47:59.697Z,62.94
2023-05-05T05:50:28.703Z,62.91
2023-05-05T05:52:56.395Z,63.00
2023-05-05T05:55:24.103Z,61.71
2023-05-05T05:57:53.246Z,62.01
2023-05-05T06:00:21.291Z,62.04
2023-05-05T06:02:49.141Z,61.46
2023-05-05T06:05:16.952Z,60.90
2023-05-05T06:07:44.675Z,60.68
2023-05-05T06:10:26.737Z,59.98
2023-05-05T06:12:56.901Z,59.65
2023-05-05T06:15:25.813Z,59.84
2023-05-05T06:17:53.524Z,60.16
2023-05-05T06:20:21.332Z,59.52
2023-05-05T06:22:49.297Z,59.08
2023-05-05T06:25:17.283Z,58.75
2023-05-05T06:27:45.059Z,58.68
2023-05-05T06:30:15.688Z,57.81
2023-05-05T06:32:43.507Z,57.87
2023-05-05T06:35:11.610Z,57.62
2023-05-05T06:37:39.612Z,57.04
2023-05-05T06:40:09.273Z,57.40
2023-05-05T06:42:37.398Z,56.73
2023-05-05T06:45:05.698Z,56.08
2023-05-05T06:47:37.872Z,55.86
2023-05-05T06:50:06.713Z,55.85
2023-05-05T06:52:35.429Z,55.42
2023-05-05T06:55:03.804Z,55.31
2023-05-05T06:57:31.663Z,55.16
2023-05-05T06:59:59.543Z,54.96
2023-05-05T07:02:27.433Z,55.02
2023-05-05T07:04:56.649Z,55.03
2023-05-05T07:07:24.432Z,54.47
2023-05-05T07:09:52.219Z,55.23
2023-05-05T07:12:20.063Z,55.01
2023-05-05T07:14:47.892Z,55.13
2023-05-05T07:17:15.968Z,55.09
2023-05-05T07:19:44.265Z,55.79
2023-05-05T07:22:13.398Z,55.41
2023-05-05T07:24:41.453Z,55.40
2023-05-05T07:27:09.337Z,55.42
2023-05-05T07:29:37.150Z,55.73
2023-05-05T07:32:05.214Z,55.62
2023-05-05T07:34:34.660Z,55.35
2023-05-05T07:37:03.380Z,55.10
2023-05-05T07:39:32.554Z,55.27
2023-05-05T07:42:01.515Z,55.16
2023-05-05T07:44:29.322Z,54.57
2023-05-05T07:46:57.169Z,54.01
2023-05-05T07:49:25.153Z,53.32
2023-05-05T07:51:52.993Z,51.38
2023-05-05T07:54:20.888Z,50.98
2023-05-05T07:56:50.021Z,49.80
2023-05-05T07:59:17.804Z,49.27
2023-05-05T08:01:45.574Z,47.96
2023-05-05T08:04:13.902Z,45.82
2023-05-05T08:06:41.834Z,44.60
2023-05-05T08:09:09.651Z,44.88
2023-05-05T08:11:37.460Z,44.10
2023-05-05T08:14:06.640Z,44.83
2023-05-05T08:16:34.963Z,44.83
2023-05-05T08:21:31.787Z,44.68
2023-05-05T08:23:59.572Z,43.67
2023-05-05T08:26:27.638Z,43.52
2023-05-05T08:29:00.742Z,43.61
2023-05-05T08:31:33.264Z,42.76
2023-05-05T08:34:01.132Z,43.21
2023-05-05T08:36:29.072Z,42.68
2023-05-05T08:38:57.036Z,42.18
2023-05-05T08:41:25.024Z,42.28
2023-05-05T08:43:52.933Z,42.01
2023-05-05T08:46:21.179Z,41.57
2023-05-05T08:48:50.156Z,41.77
2023-05-05T08:51:20.088Z,42.25
2023-05-05T08:53:55.873Z,42.33
2023-05-05T08:56:23.736Z,41.49
2023-05-05T08:58:52.181Z,41.43
2023-05-05T09:01:20.446Z,40.78
2023-05-05T09:03:48.020Z,41.21
2023-05-05T09:06:17.264Z,41.48
2023-05-05T09:08:49.264Z,42.88
2023-05-05T09:11:17.133Z,41.56
2023-05-05T09:13:44.934Z,41.72
2023-05-05T09:16:12.761Z,40.99
2023-05-05T09:18:42.637Z,40.98
2023-05-05T09:21:32.497Z,41.44
2023-05-05T09:24:10.324Z,41.73
2023-05-05T09:26:40.469Z,41.39
2023-05-05T09:29:08.268Z,41.26
2023-05-05T09:31:37.282Z,40.94
2023-05-05T09:34:15.536Z,41.07
2023-05-05T09:36:48.993Z,40.77
2023-05-05T09:39:18.912Z,41.81
2023-05-05T09:41:47.271Z,40.54
2023-05-05T09:44:16.930Z,40.26
2023-05-05T09:46:52.539Z,40.54
2023-05-05T09:49:25.516Z,40.68
2023-05-05T09:51:55.260Z,41.19
2023-05-05T09:54:27.456Z,41.25
2023-05-05T09:56:55.995Z,40.94
2023-05-05T09:59:24.513Z,40.65
2023-05-05T10:01:52.767Z,40.81
2023-05-05T10:04:28.323Z,40.30
2023-05-05T10:06:58.645Z,40.80
2023-05-05T10:09:27.062Z,40.24
2023-05-05T10:11:54.994Z,39.94
2023-05-05T10:14:24.681Z,39.53
2023-05-05T10:16:53.475Z,39.59
2023-05-05T10:19:22.676Z,39.56
2023-05-05T10:21:51.894Z,39.34
2023-05-05T10:24:28.330Z,39.18
2023-05-05T10:26:57.955Z,39.25
2023-05-05T10:29:33.642Z,39.74
2023-05-05T10:32:27.160Z,39.72
2023-05-05T10:34:55.483Z,39.61
2023-05-05T10:37:23.618Z,39.41
2023-05-05T10:39:52.946Z,39.29
2023-05-05T10:42:21.232Z,39.46
2023-05-05T10:44:49.385Z,40.05
2023-05-05T10:47:20.509Z,39.59
2023-05-05T10:49:55.241Z,38.72
2023-05-05T10:52:27.288Z,38.97
2023-05-05T10:55:06.065Z,38.75
2023-05-05T10:57:34.228Z,39.15
2023-05-05T11:00:01.988Z,39.17
2023-05-05T11:02:31.666Z,39.23
2023-05-05T11:05:09.593Z,39.88
2023-05-05T11:07:37.590Z,39.90
2023-05-05T11:10:08.379Z,40.59
2023-05-05T11:13:09.594Z,40.79
2023-05-05T11:15:41.598Z,40.44
2023-05-05T11:18:29.632Z,41.01
2023-05-05T11:21:17.125Z,40.80
2023-05-05T11:23:46.967Z,40.88
2023-05-05T11:26:17.153Z,41.46
2023-05-05T11:28:59.900Z,41.87
2023-05-05T11:31:28.351Z,41.70
2023-05-05T11:33:56.404Z,41.78
2023-05-05T11:36:40.263Z,42.19
2023-05-05T11:39:20.809Z,42.80
2023-05-05T11:42:23.650Z,42.49
2023-05-05T11:44:51.770Z,43.13
2023-05-05T11:47:33.227Z,42.65
2023-05-05T11:50:17.834Z,42.83
2023-05-05T11:52:45.927Z,43.64
2023-05-05T11:55:13.767Z,43.84
2023-05-05T11:57:42.931Z,43.92
2023-05-05T12:00:11.731Z,44.38
2023-05-05T12:02:39.700Z,44.83
2023-05-05T12:05:08.353Z,45.03
2023-05-05T12:07:36.243Z,46.30
2023-05-05T12:10:04.226Z,46.27
2023-05-05T12:12:36.931Z,46.73
2023-05-05T12:15:07.629Z,46.74
2023-05-05T12:17:40.718Z,45.90
2023-05-05T12:20:10.315Z,45.72
2023-05-05T12:22:38.515Z,45.82
2023-05-05T12:25:07.850Z,46.05
2023-05-05T12:27:36.422Z,46.37
2023-05-05T12:30:24.236Z,47.13
2023-05-05T12:32:52.066Z,47.46
2023-05-05T12:35:21.170Z,49.00
2023-05-05T12:37:48.950Z,49.62
2023-05-05T12:40:45.764Z,51.63
2023-05-05T12:43:27.183Z,50.65
2023-05-05T12:46:04.570Z,51.24
2023-05-05T12:48:32.557Z,50.88
2023-05-05T12:51:19.997Z,50.75
2023-05-05T12:53:48.715Z,50.63
2023-05-05T12:56:36.555Z,51.12
2023-05-05T12:59:05.992Z,49.29
2023-05-05T13:01:35.713Z,48.62
2023-05-05T13:04:10.863Z,48.17
2023-05-05T13:06:39.078Z,48.74
2023-05-05T13:09:07.412Z,48.05
2023-05-05T13:11:38.729Z,47.54
2023-05-05T13:14:07.721Z,47.34
2023-05-05T13:16:37.023Z,47.47
2023-05-05T13:19:04.865Z,47.29
2023-05-05T13:21:32.872Z,47.92
2023-05-05T13:24:12.463Z,48.42
2023-05-05T13:26:48.438Z,48.04
2023-05-05T13:29:16.481Z,47.68
2023-05-05T13:31:46.219Z,47.93
2023-05-05T13:34:14.106Z,47.79
2023-05-05T13:36:41.964Z,47.88
2023-05-05T13:39:09.910Z,47.84
2023-05-05T13:41:37.704Z,48.29
2023-05-05T13:44:05.578Z,48.37
2023-05-05T13:46:33.438Z,48.47
2023-05-05T13:49:02.667Z,48.74
2023-05-05T13:51:30.642Z,48.36
2023-05-05T13:53:58.422Z,49.75
2023-05-05T13:56:27.693Z,51.28
2023-05-05T13:58:55.624Z,51.92
2023-05-05T14:01:23.550Z,51.89
2023-05-05T14:03:51.555Z,52.03
2023-05-05T14:06:20.838Z,52.19
2023-05-05T14:08:48.678Z,52.27
2023-05-05T14:11:18.057Z,52.74
2023-05-05T14:13:48.016Z,53.41
2023-05-05T14:16:16.049Z,53.88
2023-05-05T14:18:43.929Z,53.94
2023-05-05T14:21:12.174Z,54.00
2023-05-05T14:23:41.311Z,54.03
2023-05-05T14:26:09.862Z,54.03
2023-05-05T14:28:37.633Z,54.41
2023-05-05T14:31:06.030Z,55.19
2023-05-05T14:33:33.864Z,55.51
2023-05-05T14:36:01.688Z,55.87
2023-05-05T14:38:29.529Z,57.66
2023-05-05T14:40:58.946Z,58.85
2023-05-05T14:43:26.859Z,59.00
2023-05-05T14:45:54.766Z,59.25
2023-05-05T14:48:22.810Z,59.59
2023-05-05T14:50:50.729Z,59.82
2023-05-05T14:53:19.035Z,60.34
2023-05-05T14:55:46.872Z,60.94
2023-05-05T14:58:17.184Z,61.69
2023-05-05T15:00:44.996Z,62.59
2023-05-05T15:03:12.954Z,63.64
2023-05-05T15:05:40.823Z,64.51
2023-05-05T15:08:08.642Z,64.52
2023-05-05T15:10:36.505Z,65.10
2023-05-05T15:13:04.447Z,65.80
2023-05-05T15:15:34.767Z,66.18
2023-05-05T15:18:02.684Z,66.39
2023-05-05T15:20:30.745Z,66.65
2023-05-05T15:22:58.619Z,67.28
2023-05-05T15:25:26.481Z,66.88
2023-05-05T15:27:54.253Z,66.87
2023-05-05T15:30:22.058Z,66.86
2023-05-05T15:32:51.283Z,67.57
2023-05-05T15:35:19.136Z,66.79
2023-05-05T15:37:46.956Z,66.93
2023-05-05T15:40:14.874Z,66.92
2023-05-05T15:42:42.671Z,66.72
2023-05-05T15:45:13.067Z,66.59
2023-05-05T15:47:40.935Z,66.93
2023-05-05T15:50:11.015Z,67.02
2023-05-05T15:52:38.851Z,67.25
2023-05-05T15:55:07.917Z,67.72
2023-05-05T15:57:36.322Z,67.11
2023-05-05T16:00:04.750Z,67.66
2023-05-05T16:02:32.608Z,68.27
2023-05-05T16:05:00.953Z,67.57
2023-05-05T16:07:30.113Z,68.12
2023-05-05T16:09:57.890Z,67.93
2023-05-05T16:12:25.707Z,68.26
2023-05-05T16:14:53.768Z,68.22
2023-05-05T16:17:22.364Z,67.70
2023-05-05T16:19:50.412Z,73.03
2023-05-05T16:22:18.385Z,69.92
2023-05-05T16:24:47.616Z,71.34
2023-05-05T16:27:16.476Z,71.54
2023-05-05T16:29:44.291Z,70.34
2023-05-05T16:32:12.155Z,72.06
2023-05-05T16:34:39.974Z,71.47
2023-05-05T16:37:07.794Z,71.36
2023-05-05T16:39:40.197Z,70.97
2023-05-05T16:42:09.472Z,72.00
2023-05-05T16:44:37.019Z,74.92
2023-05-05T16:47:05.041Z,71.76
2023-05-05T16:49:32.865Z,70.81
2023-05-05T16:52:00.637Z,71.54
2023-05-05T16:54:28.479Z,70.28
2023-05-05T16:56:56.410Z,71.59
2023-05-05T16:59:25.774Z,71.13
2023-05-05T17:01:53.709Z,71.56
2023-05-05T17:04:22.012Z,71.12
2023-05-05T17:06:49.789Z,70.84
2023-05-05T17:09:17.688Z,70.70
2023-05-05T17:11:45.520Z,70.67
2023-05-05T17:14:13.297Z,70.66
2023-05-05T17:16:42.611Z,70.77
2023-05-05T17:19:10.436Z,70.70
2023-05-05T17:21:38.351Z,70.30
2023-05-05T17:24:07.138Z,70.28
2023-05-05T17:26:34.982Z,70.26
2023-05-05T17:29:02.864Z,70.09
2023-05-05T17:31:30.787Z,69.83
2023-05-05T17:34:00.002Z,69.50
2023-05-05T17:36:27.835Z,69.23
2023-05-05T17:38:55.610Z,69.65
2023-05-05T17:41:25.690Z,68.96
2023-05-05T17:43:53.537Z,69.20
2023-05-05T17:46:21.382Z,69.20
2023-05-05T17:48:49.610Z,68.93
2023-05-05T17:51:18.988Z,69.62
2023-05-05T17:53:46.817Z,69.59
2023-05-05T17:56:14.677Z,69.27
2023-05-05T17:58:42.464Z,69.32
2023-05-05T18:01:13.546Z,69.46
2023-05-05T18:03:42.046Z,69.23
2023-05-05T18:06:09.885Z,69.54
2023-05-05T18:08:39.147Z,69.32
2023-05-05T18:11:06.995Z,69.47
2023-05-05T18:13:36.680Z,69.60
2023-05-05T18:16:04.644Z,69.68
2023-05-05T18:18:32.562Z,69.45
2023-05-05T18:21:00.473Z,69.01
2023-05-05T18:23:28.317Z,69.02
2023-05-05T18:25:59.801Z,69.21
2023-05-05T18:28:27.633Z,68.86
2023-05-05T18:30:55.774Z,69.35
2023-05-05T18:33:23.759Z,69.56
2023-05-05T18:35:52.088Z,69.39
2023-05-05T18:38:20.038Z,69.20
2023-05-05T18:40:48.192Z,69.38
2023-05-05T18:43:17.613Z,70.14
2023-05-05T18:45:45.515Z,70.23
2023-05-05T18:48:13.412Z,70.15
2023-05-05T18:50:42.430Z,70.69
2023-05-05T18:53:10.834Z,70.49
2023-05-05T18:55:38.666Z,70.17
2023-05-05T18:58:06.481Z,70.80
2023-05-05T19:00:35.775Z,70.38
2023-05-05T19:03:03.814Z,70.42
2023-05-05T19:05:31.613Z,70.77
2023-05-05T19:07:59.673Z,70.70
2023-05-05T19:10:27.618Z,71.31
2023-05-05T19:12:55.741Z,71.13
2023-05-05T19:15:23.900Z,71.09
2023-05-05T19:17:53.753Z,71.31
2023-05-05T19:20:22.018Z,71.38
2023-05-05T19:22:50.092Z,71.76
2023-05-05T19:25:18.216Z,71.72
2023-05-05T19:27:46.022Z,71.48
2023-05-05T19:30:14.198Z,71.76
2023-05-05T19:32:42.092Z,71.59
2023-05-05T19:35:12.025Z,71.45
2023-05-05T19:37:40.279Z,71.86
2023-05-05T19:40:09.473Z,71.91
2023-05-05T19:42:37.453Z,72.00
2023-05-05T19:45:05.975Z,71.82
2023-05-05T19:47:33.906Z,72.11
2023-05-05T19:50:01.755Z,72.00
2023-05-05T19:52:30.958Z,71.75
2023-05-05T19:54:59.275Z,72.46
2023-05-05T19:57:27.582Z,71.59
2023-05-05T19:59:55.397Z,71.81
2023-05-05T20:02:26.427Z,71.70
2023-05-05T20:04:54.393Z,71.87
2023-05-05T20:07:22.675Z,72.07
2023-05-05T20:09:51.913Z,72.21
2023-05-05T20:12:21.468Z,72.77
2023-05-05T20:14:49.289Z,71.61
2023-05-05T20:17:20.233Z,72.00
2023-05-05T20:19:48.592Z,71.63
2023-05-05T20:22:16.438Z,71.58
2023-05-05T20:24:44.324Z,72.52
2023-05-05T20:27:13.546Z,72.57
2023-05-05T20:29:41.161Z,74.39
2023-05-05T20:32:08.972Z,72.46
2023-05-05T20:34:37.630Z,72.97
2023-05-05T20:37:05.572Z,72.99
2023-05-05T20:39:33.550Z,73.65
2023-05-05T20:42:01.331Z,73.71
2023-05-05T20:44:30.858Z,73.97
2023-05-05T20:46:58.827Z,74.35
2023-05-05T20:49:26.860Z,75.21
2023-05-05T20:51:54.937Z,75.09
2023-05-05T20:54:22.785Z,75.83
2023-05-05T20:56:50.814Z,75.37
2023-05-05T20:59:18.624Z,74.88
2023-05-05T21:01:47.823Z,75.37
2023-05-05T21:04:15.706Z,78.33
2023-05-05T21:06:43.536Z,75.25
2023-05-05T21:09:11.647Z,75.22
2023-05-05T21:11:39.543Z,75.00
2023-05-05T21:14:07.444Z,74.48
2023-05-05T21:16:35.378Z,74.50
2023-05-05T21:19:04.546Z,74.95
2023-05-05T21:21:32.733Z,74.77
2023-05-05T21:24:00.699Z,74.56
2023-05-05T21:26:28.505Z,74.23
2023-05-05T21:28:56.450Z,74.58
2023-05-05T21:31:24.315Z,75.10
2023-05-05T21:33:52.245Z,75.58
2023-05-05T21:36:21.389Z,75.20
2023-05-05T21:38:48.950Z,76.37
2023-05-05T21:41:16.816Z,74.70
2023-05-05T21:43:44.625Z,75.26
2023-05-05T21:46:13.028Z,74.83
2023-05-05T21:48:41.428Z,75.11
2023-05-05T21:51:09.229Z,74.89
2023-05-05T21:53:38.931Z,75.26
2023-05-05T21:56:07.931Z,75.10
2023-05-05T21:58:35.876Z,74.98
2023-05-05T22:01:03.831Z,74.89
2023-05-05T22:03:31.945Z,75.03
2023-05-05T22:05:59.920Z,74.92
2023-05-05T22:08:27.795Z,75.04
2023-05-05T22:10:56.965Z,75.06
2023-05-05T22:13:24.625Z,76.83
2023-05-05T22:15:52.506Z,75.84
2023-05-05T22:18:20.295Z,76.18
2023-05-05T22:20:48.113Z,75.78
2023-05-05T22:23:16.517Z,75.90
2023-05-05T22:25:44.682Z,75.84
2023-05-05T22:28:13.860Z,75.32
2023-05-05T22:30:41.432Z,76.73
2023-05-05T22:33:09.215Z,75.30
2023-05-05T22:35:38.177Z,75.53
2023-05-05T22:38:06.180Z,75.30
2023-05-05T22:40:34.107Z,75.03
2023-05-05T22:43:01.926Z,75.13
2023-05-05T22:45:31.180Z,75.46
2023-05-05T22:47:58.881Z,75.82
2023-05-05T22:50:26.764Z,74.42
2023-05-05T22:52:54.653Z,74.76
2023-05-05T22:55:24.389Z,74.61
2023-05-05T22:57:52.529Z,75.29
2023-05-05T23:00:23.612Z,75.03
2023-05-05T23:02:52.942Z,75.03
2023-05-05T23:05:20.832Z,74.87
2023-05-05T23:07:48.668Z,74.85
2023-05-05T23:10:16.828Z,74.69
2023-05-05T23:12:44.705Z,74.78
2023-05-05T23:15:12.923Z,75.14
2023-05-05T23:17:43.374Z,75.24
2023-05-05T23:20:13.286Z,75.91
2023-05-05T23:22:41.140Z,75.85
2023-05-05T23:25:20.360Z,75.69
2023-05-05T23:27:48.418Z,75.78
2023-05-05T23:30:16.608Z,76.27
2023-05-05T23:32:45.059Z,75.70
2023-05-05T23:35:14.338Z,76.24
2023-05-05T23:37:41.934Z,78.52
2023-05-05T23:40:11.023Z,76.52
2023-05-05T23:42:38.808Z,76.30
2023-05-05T23:45:07.562Z,75.99
2023-05-05T23:47:35.421Z,76.57
2023-05-05T23:50:03.570Z,76.85
2023-05-05T23:52:32.736Z,76.85
2023-05-05T23:55:00.494Z,76.97
2023-05-05T23:57:28.250Z,77.41
2023-05-05T23:59:56.094Z,76.78
